Huvudsida
METAR-TAF:

METAR-TAF

Flygplatser :

Joensuu, Finland

Joensuu flygplats

latitud: 62-40N, longitud: 029-38E, höjd: 119 m

Aktuellt väderrapport

Denna rapport gjordes för 26 minuter sedan, klockan 14:50 UTC
Vind 8 kt från nord, varierande mellan nordväst och nord/nordost
Temperatur 1°C
Fuktighet 80%
Tryck 1000 hPa
Sikt 10 km eller mer
Brutna moln på en höjd av 2200 ft
Mulet på en höjd av 4000 ft

METAR: EFJO 211450Z 35008KT 320V020 9999 BKN022 OVC040 01/M02 Q1000

Tid: 18:16 (15:16 UTC)

Väderprognos

Denna rapport gjordes för 3 timmar och 47 minuter sedan, klockan 11:29 UTC
Prognos gäller från 21 kl. 12 UTC till 21 kl. 16 UTC
Vind 8 kt från nord/nordväst
Sikt 10 km eller mer
Mulet på en höjd av 1600 ft
Temporärt
från 21 kl. 12 UTC till 21 kl. 16 UTC
Brutna moln på en höjd av 1400 ft

TAF: EFJO 211129Z 2112/2116 34008KT 9999 OVC016 TEMPO 2112/2116 BKN014

Aktuella väderrapporter och prognoser från 4000 flygplatser (METAR- och TAF-rapporter).

De tillgängliga stationerna syns som gula och röda prickar på kartan.

För musen över prickarna för att se namnen på stationerna.

Klicka sedan för att få väderrapporter och prognoser.

För att ändra kartan: Klicka på de gröna knapparna med ett svart kors på för att zooma in; den gröna knappen med ett streck på för att zooma ut; eller på de gröna pilarna för angränsande kartor.


METAR-TAF: